Time;durP1;ratioP1;P1;durP2;ratioP2;P2;SDS_P1;SDS_P2;PMS_P1;PMS_P2;Temp;Humidity;BMP_temperature;BMP_pressure;BME280_temperature;BME280_humidity;BME280_pressure;Samples;Min_cycle;Max_cycle;Signal;HPM_P1;HPM_P2
2021/06/17 00:01:54;;;;;;;;;;;;;;;20.03;63.96;100591.41;5119148;28;1279;-38
2021/06/17 00:04:20;;;;;;;;;;;;;;;20.00;64.07;100594.78;5119586;28;827;-60
2021/06/17 00:06:45;;;;;;;;;;;;;;;20.17;63.75;100597.81;5119155;28;1910;-46
2021/06/17 00:09:11;;;;;;;;;;;;;;;20.24;62.46;100602.94;5121683;27;1109;-40
2021/06/17 00:11:36;;;;;;;;;;;;;;;20.50;60.34;100605.25;5140093;27;739;-53
2021/06/17 00:14:02;;;;;;;;;;;;;;;20.37;60.30;100597.75;5139424;27;783;-62
2021/06/17 00:16:30;;;;;;;;;;;;;;;20.55;61.16;100604.34;5120090;27;1000;-39
2021/06/17 00:18:55;;;;;;;;;;;;;;;20.16;63.58;100598.94;5119219;28;847;-55
2021/06/17 00:21:21;;;;;;;;;;;;;;;20.36;62.63;100594.19;5119132;27;719;-60
2021/06/17 00:23:46;;;;;;;;;;;;;;;20.34;61.91;100600.00;5118976;28;942;-59
2021/06/17 00:26:12;;;;;;;;;;;;;;;20.28;61.37;100597.63;5119133;28;1984;-61
2021/06/17 00:28:37;;;;;;;;;;;;;;;19.94;62.01;100607.03;5118529;28;851;-61
2021/06/17 00:31:02;;;;;;;;;;;;;;;20.22;62.72;100594.16;5118870;28;1024;-60
2021/06/17 00:33:28;;;;;;;;;;;;;;;20.10;63.50;100597.38;5118797;28;767;-61
2021/06/17 00:35:56;;;;;;;;;;;;;;;20.60;61.50;100593.19;5118480;28;847;-41
2021/06/17 00:38:21;;;;;;;;;;;;;;;20.50;61.98;100588.69;5118966;27;767;-40
2021/06/17 00:40:47;;;;;;;;;;;;;;;20.44;62.72;100589.88;5118796;28;731;-58
2021/06/17 00:43:12;;;;;;;;;;;;;;;20.67;61.80;100594.44;5117799;28;778;-59
2021/06/17 00:45:41;;;;;;;;;;;;;;;20.36;62.06;100585.91;5118365;28;1984;-60
2021/06/17 00:48:07;;;;;;;;;;;;;;;20.47;59.94;100590.09;5118706;28;799;-59
2021/06/17 00:50:42;;;;;;;;;;;;;;;20.46;57.52;100587.66;5116927;28;1452;-45
2021/06/17 00:53:09;;;;;;;;;;;;;;;20.64;59.11;100594.22;5118551;28;891;-59
2021/06/17 00:55:35;;;;;;;;;;;;;;;20.73;60.37;100592.41;5118765;28;787;-38
2021/06/17 00:58:00;;;;;;;;;;;;;;;20.50;61.30;100592.25;5116954;28;937;-38
2021/06/17 01:00:26;;;;;;;;;;;;;;;20.73;59.31;100592.41;5116465;28;971;-41
2021/06/17 01:02:51;;;;;;;;;;;;;;;20.80;58.14;100592.84;5117997;28;1169;-38
2021/06/17 01:05:18;;;;;;;;;;;;;;;20.75;59.75;100590.16;5118031;28;1975;-38
2021/06/17 01:07:45;;;;;;;;;;;;;;;20.44;61.76;100599.00;5118442;28;751;-48
2021/06/17 01:10:28;;;;;;;;;;;;;;;20.53;60.81;100593.59;5127601;27;1134;-38
2021/06/17 01:12:57;;;;;;;;;;;;;;;20.40;59.88;100592.44;5138670;27;806;-55
2021/06/17 01:15:22;;;;;;;;;;;;;;;20.49;58.67;100593.38;5126915;27;1000;-59
2021/06/17 01:17:55;;;;;;;;;;;;;;;20.54;60.18;100592.47;5116871;28;815;-38
2021/06/17 01:20:24;;;;;;;;;;;;;;;20.46;61.56;100593.16;5117663;28;774;-59
2021/06/17 01:22:53;;;;;;;;;;;;;;;20.28;61.17;100592.13;5118289;28;752;-60
2021/06/17 01:25:25;;;;;;;;;;;;;;;20.70;58.25;100603.25;5116517;28;1909;-38
2021/06/17 01:28:04;;;;;;;;;;;;;;;20.52;58.96;100601.06;5117741;28;839;-62
2021/06/17 01:30:30;;;;;;;;;;;;;;;19.83;63.67;100595.34;5117297;28;957;-37
2021/06/17 01:32:56;;;;;;;;;;;;;;;20.12;63.25;100595.13;5116933;27;2076;-57
2021/06/17 01:35:22;;;;;;;;;;;;;;;20.32;62.95;100598.66;5136813;27;858;-38
2021/06/17 01:37:49;;;;;;;;;;;;;;;20.64;61.93;100595.03;5138272;27;800;-38
2021/06/17 01:40:15;;;;;;;;;;;;;;;20.71;61.92;100591.91;5137642;27;799;-38
2021/06/17 01:42:41;;;;;;;;;;;;;;;20.76;62.08;100580.75;5137787;27;819;-59
2021/06/17 01:45:07;;;;;;;;;;;;;;;20.37;63.72;100589.47;5128307;27;1917;-38
2021/06/17 01:47:33;;;;;;;;;;;;;;;20.65;62.93;100580.09;5117893;28;803;-44
2021/06/17 01:49:58;;;;;;;;;;;;;;;20.65;63.05;100590.31;5116094;28;781;-52
2021/06/17 01:52:24;;;;;;;;;;;;;;;20.79;62.52;100588.44;5117417;28;859;-41
2021/06/17 01:54:50;;;;;;;;;;;;;;;20.64;63.17;100585.94;5098174;28;1419;-37
2021/06/17 01:57:15;;;;;;;;;;;;;;;20.74;62.70;100590.47;5116914;28;842;-41
2021/06/17 01:59:42;;;;;;;;;;;;;;;20.84;62.40;100588.31;5116820;28;961;-37
2021/06/17 02:02:07;;;;;;;;;;;;;;;20.93;62.06;100593.97;5099281;28;1216;-59
2021/06/17 02:04:34;;;;;;;;;;;;;;;20.63;63.25;100603.63;5115461;28;786;-60
2021/06/17 02:07:01;;;;;;;;;;;;;;;20.81;62.46;100599.97;5117226;28;806;-45
2021/06/17 02:09:27;;;;;;;;;;;;;;;21.04;61.58;100602.84;5120722;27;1111;-52
2021/06/17 02:11:52;;;;;;;;;;;;;;;20.80;62.55;100606.66;5136041;27;819;-52
2021/06/17 02:14:18;;;;;;;;;;;;;;;20.73;62.75;100614.50;5135918;27;1005;-59
2021/06/17 02:16:44;;;;;;;;;;;;;;;20.91;61.88;100611.97;5117612;28;775;-48
2021/06/17 02:19:13;;;;;;;;;;;;;;;20.87;61.28;100624.75;5114832;28;854;-60
2021/06/17 02:21:38;;;;;;;;;;;;;;;20.98;59.42;100626.19;5116372;28;759;-59
2021/06/17 02:24:04;;;;;;;;;;;;;;;20.93;57.94;100631.81;5116000;28;760;-39
2021/06/17 02:26:29;;;;;;;;;;;;;;;21.01;57.24;100631.94;5116430;28;1975;-55
2021/06/17 02:28:55;;;;;;;;;;;;;;;21.09;57.41;100644.22;5115732;28;779;-38
2021/06/17 02:31:22;;;;;;;;;;;;;;;20.21;61.77;100661.53;5115344;28;953;-49
2021/06/17 02:33:47;;;;;;;;;;;;;;;20.25;62.92;100656.22;5115256;28;751;-37
2021/06/17 02:36:13;;;;;;;;;;;;;;;20.51;61.17;100667.66;5115520;28;824;-52
2021/06/17 02:38:39;;;;;;;;;;;;;;;20.62;59.10;100660.84;5115349;28;803;-59
2021/06/17 02:41:05;;;;;;;;;;;;;;;20.89;55.99;100669.47;5115213;28;808;-58
2021/06/17 02:43:31;;;;;;;;;;;;;;;20.77;53.59;100670.81;5116806;28;756;-59
2021/06/17 02:45:56;;;;;;;;;;;;;;;20.67;55.75;100679.25;5115787;28;2003;-37
2021/06/17 02:48:22;;;;;;;;;;;;;;;20.62;58.73;100685.69;5116338;28;794;-40
2021/06/17 02:50:47;;;;;;;;;;;;;;;20.72;58.56;100679.19;5116658;28;827;-37
2021/06/17 02:53:12;;;;;;;;;;;;;;;20.74;56.10;100688.00;5116503;28;752;-37
2021/06/17 02:55:38;;;;;;;;;;;;;;;20.71;54.77;100691.38;5116221;28;747;-38
2021/06/17 02:58:23;;;;;;;;;;;;;;;20.49;58.18;100697.50;5115711;28;736;-41
2021/06/17 03:00:50;;;;;;;;;;;;;;;20.56;59.16;100697.94;5116200;28;970;-59
2021/06/17 03:03:16;;;;;;;;;;;;;;;20.60;60.06;100701.75;5116216;28;1081;-38
2021/06/17 03:05:42;;;;;;;;;;;;;;;20.67;59.80;100704.97;5116110;28;1972;-60
2021/06/17 03:08:12;;;;;;;;;;;;;;;20.78;59.05;100697.31;5120455;28;855;-38
2021/06/17 03:10:37;;;;;;;;;;;;;;;20.67;58.93;100701.34;5133694;27;1190;-37
2021/06/17 03:13:03;;;;;;;;;;;;;;;20.67;58.24;100687.53;5141020;27;755;-46
2021/06/17 03:15:31;;;;;;;;;;;;;;;20.59;58.65;100707.56;5128122;27;1013;-38
2021/06/17 03:17:56;;;;;;;;;;;;;;;20.58;58.57;100719.75;5119301;28;780;-38
2021/06/17 03:20:22;;;;;;;;;;;;;;;20.65;59.77;100722.94;5119008;28;760;-38
2021/06/17 03:22:49;;;;;;;;;;;;;;;20.54;61.02;100724.22;5118726;28;882;-38
2021/06/17 03:25:15;;;;;;;;;;;;;;;20.61;60.34;100733.78;5120381;28;1969;-38
2021/06/17 03:27:41;;;;;;;;;;;;;;;20.70;58.51;100720.13;5119343;28;799;-38
2021/06/17 03:30:07;;;;;;;;;;;;;;;20.73;56.07;100724.22;5118455;28;954;-38
2021/06/17 03:32:32;;;;;;;;;;;;;;;20.13;56.20;100715.50;5120118;28;735;-38
2021/06/17 03:34:58;;;;;;;;;;;;;;;20.60;57.57;100723.84;5118965;28;752;-38
2021/06/17 03:37:26;;;;;;;;;;;;;;;20.63;60.23;100726.00;5100782;28;972;-48
2021/06/17 03:39:51;;;;;;;;;;;;;;;20.26;62.67;100726.88;5119774;28;775;-38
2021/06/17 03:42:17;;;;;;;;;;;;;;;20.84;60.33;100731.19;5119115;28;803;-38
2021/06/17 03:44:43;;;;;;;;;;;;;;;20.76;58.00;100741.03;5118095;28;1972;-58
2021/06/17 03:47:10;;;;;;;;;;;;;;;20.77;55.43;100734.34;5132441;27;1011;-57
2021/06/17 03:49:36;;;;;;;;;;;;;;;20.75;54.36;100728.31;5140137;27;834;-38
2021/06/17 03:52:02;;;;;;;;;;;;;;;20.66;57.97;100733.69;5139244;27;870;-59
2021/06/17 03:54:27;;;;;;;;;;;;;;;20.98;58.69;100731.22;5138937;27;771;-61
2021/06/17 03:56:57;;;;;;;;;;;;;;;21.15;58.00;100742.53;5138934;27;775;-51
2021/06/17 03:59:23;;;;;;;;;;;;;;;20.64;57.10;100743.41;5136344;27;1406;-57
2021/06/17 04:01:49;;;;;;;;;;;;;;;20.81;53.63;100754.72;5119557;28;955;-38
2021/06/17 04:04:15;;;;;;;;;;;;;;;20.53;56.87;100745.50;5119522;28;822;-39
2021/06/17 04:06:40;;;;;;;;;;;;;;;20.60;58.72;100750.66;5117787;28;1988;-61
2021/06/17 04:09:06;;;;;;;;;;;;;;;20.78;58.86;100752.59;5120767;27;1153;-39
2021/06/17 04:11:31;;;;;;;;;;;;;;;20.68;59.32;100750.00;5138693;27;851;-39
2021/06/17 04:13:56;;;;;;;;;;;;;;;20.41;60.01;100747.91;5137723;27;958;-38
2021/06/17 04:16:26;;;;;;;;;;;;;;;20.60;59.87;100743.19;5116805;28;997;-37
2021/06/17 04:18:52;;;;;;;;;;;;;;;20.52;61.22;100743.88;5117129;28;843;-59
2021/06/17 04:21:18;;;;;;;;;;;;;;;20.40;60.83;100749.03;5118032;28;747;-37
2021/06/17 04:23:44;;;;;;;;;;;;;;;20.36;59.24;100754.34;5117823;28;1282;-43
2021/06/17 04:26:10;;;;;;;;;;;;;;;20.40;57.42;100752.63;5117965;28;1972;-52
2021/06/17 04:28:35;;;;;;;;;;;;;;;20.74;56.74;100761.78;5100678;28;1479;-38
2021/06/17 04:31:01;;;;;;;;;;;;;;;20.48;60.10;100759.41;5118223;28;981;-59
2021/06/17 04:33:27;;;;;;;;;;;;;;;20.04;61.05;100758.69;5118878;28;799;-37
2021/06/17 04:35:54;;;;;;;;;;;;;;;20.02;62.82;100751.81;5118123;28;700;-37
2021/06/17 04:38:26;;;;;;;;;;;;;;;20.13;62.82;100756.06;5118435;28;850;-60
2021/06/17 04:40:51;;;;;;;;;;;;;;;20.28;62.84;100752.25;5118861;28;786;-59
2021/06/17 04:43:21;;;;;;;;;;;;;;;20.44;62.81;100748.16;5118919;28;847;-38
2021/06/17 04:45:47;;;;;;;;;;;;;;;20.56;61.21;100742.13;5117915;28;1914;-56
2021/06/17 04:48:12;;;;;;;;;;;;;;;20.64;60.22;100729.59;5133268;27;1181;-63
2021/06/17 04:50:38;;;;;;;;;;;;;;;20.38;60.46;100718.13;5139430;27;858;-38
2021/06/17 04:53:08;;;;;;;;;;;;;;;20.39;60.26;100714.28;5138865;27;886;-63
2021/06/17 04:55:33;;;;;;;;;;;;;;;20.51;59.52;100720.16;5139371;27;826;-63
2021/06/17 04:57:59;;;;;;;;;;;;;;;20.60;59.06;100723.03;5138926;27;771;-39
2021/06/17 05:00:24;;;;;;;;;;;;;;;20.66;58.71;100714.38;5127702;27;965;-39
2021/06/17 05:02:49;;;;;;;;;;;;;;;20.65;59.73;100712.72;5118106;28;1031;-38
2021/06/17 05:05:15;;;;;;;;;;;;;;;20.60;61.52;100709.22;5118665;28;1910;-39
2021/06/17 05:10:47;;;;;;;;;;;;;;;20.85;61.63;100708.78;5118063;28;811;-64
2021/06/17 05:13:10;;;;;;;;;;;;;;;20.93;59.87;100723.03;5138914;27;763;-41
2021/06/17 05:15:35;;;;;;;;;;;;;;;20.95;58.18;100729.09;5125938;27;956;-39
2021/06/17 05:18:00;;;;;;;;;;;;;;;21.10;56.56;100725.22;5117975;28;811;-38
2021/06/17 05:20:26;;;;;;;;;;;;;;;20.69;58.26;100735.03;5116533;28;1207;-38
2021/06/17 05:22:52;;;;;;;;;;;;;;;20.70;59.81;100741.41;5118211;28;745;-61
2021/06/17 05:25:17;;;;;;;;;;;;;;;20.91;60.84;100736.34;5118139;28;1918;-38
2021/06/17 05:27:43;;;;;;;;;;;;;;;20.75;61.25;100733.84;5117866;28;826;-38
2021/06/17 05:30:08;;;;;;;;;;;;;;;20.72;60.31;100740.00;5115621;28;958;-57
2021/06/17 05:32:34;;;;;;;;;;;;;;;20.83;57.27;100732.31;5118220;28;736;-42
2021/06/17 05:34:59;;;;;;;;;;;;;;;20.13;56.17;100729.28;5117537;28;831;-38
2021/06/17 05:37:25;;;;;;;;;;;;;;;20.32;57.76;100737.53;5117860;28;787;-39
2021/06/17 05:39:51;;;;;;;;;;;;;;;20.57;59.83;100743.78;5117443;28;815;-52
2021/06/17 05:42:16;;;;;;;;;;;;;;;20.79;61.07;100745.09;5117776;28;827;-65
2021/06/17 05:44:44;;;;;;;;;;;;;;;20.81;60.92;100734.59;5117185;28;930;-38
2021/06/17 05:47:10;;;;;;;;;;;;;;;20.83;60.06;100733.16;5117258;28;775;-55
2021/06/17 05:49:36;;;;;;;;;;;;;;;20.91;56.75;100728.06;5117160;28;794;-38
2021/06/17 05:52:02;;;;;;;;;;;;;;;20.89;54.44;100722.00;5116583;28;806;-39
2021/06/17 05:54:27;;;;;;;;;;;;;;;20.98;55.32;100728.47;5116872;28;731;-57
2021/06/17 05:56:53;;;;;;;;;;;;;;;20.94;57.85;100728.25;5117593;28;790;-39
2021/06/17 05:59:19;;;;;;;;;;;;;;;20.98;59.85;100736.75;5116566;28;1005;-61
2021/06/17 06:01:45;;;;;;;;;;;;;;;21.16;59.27;100735.84;5116859;28;1047;-40
2021/06/17 06:04:10;;;;;;;;;;;;;;;21.28;57.87;100740.06;5117073;28;755;-39
2021/06/17 06:06:36;;;;;;;;;;;;;;;21.15;55.92;100741.69;5117390;28;1913;-40
2021/06/17 06:09:02;;;;;;;;;;;;;;;21.24;53.59;100744.56;5117660;27;1189;-40
2021/06/17 06:11:27;;;;;;;;;;;;;;;20.94;53.93;100731.00;5138021;27;844;-40
2021/06/17 06:13:52;;;;;;;;;;;;;;;21.13;55.75;100733.72;5137971;27;863;-59
2021/06/17 06:16:18;;;;;;;;;;;;;;;20.94;58.45;100735.72;5118464;27;1001;-39
2021/06/17 06:18:43;;;;;;;;;;;;;;;20.99;60.22;100732.88;5117030;28;751;-37
2021/06/17 06:21:09;;;;;;;;;;;;;;;21.06;60.65;100732.50;5117282;28;727;-38
2021/06/17 06:23:34;;;;;;;;;;;;;;;20.89;60.75;100733.03;5116905;28;858;-38
2021/06/17 06:26:00;;;;;;;;;;;;;;;21.08;58.62;100746.81;5117176;28;1914;-38
2021/06/17 06:28:26;;;;;;;;;;;;;;;21.37;55.47;100754.81;5116904;28;763;-38
2021/06/17 06:30:52;;;;;;;;;;;;;;;21.06;54.14;100752.66;5116242;28;950;-38
2021/06/17 06:33:17;;;;;;;;;;;;;;;21.08;53.85;100758.69;5117122;28;740;-39
2021/06/17 06:35:43;;;;;;;;;;;;;;;20.77;56.33;100767.50;5116938;28;747;-41
2021/06/17 06:38:10;;;;;;;;;;;;;;;20.80;58.14;100764.16;5116565;28;870;-38
2021/06/17 06:40:35;;;;;;;;;;;;;;;21.01;59.07;100752.72;5116059;28;759;-39
2021/06/17 06:43:01;;;;;;;;;;;;;;;20.99;60.77;100760.53;5116853;28;815;-62
2021/06/17 06:45:26;;;;;;;;;;;;;;;21.11;60.71;100763.63;5116545;28;1913;-61
2021/06/17 06:47:52;;;;;;;;;;;;;;;21.11;59.95;100763.63;5116929;28;851;-60
2021/06/17 06:50:18;;;;;;;;;;;;;;;20.90;59.29;100762.34;5116373;28;776;-38
2021/06/17 06:52:44;;;;;;;;;;;;;;;21.14;55.77;100774.06;5131517;28;834;-44
2021/06/17 06:55:10;;;;;;;;;;;;;;;21.05;54.03;100772.31;5137755;27;795;-38
2021/06/17 06:57:35;;;;;;;;;;;;;;;21.09;53.92;100782.44;5137205;28;775;-38
2021/06/17 07:00:01;;;;;;;;;;;;;;;20.77;57.68;100775.00;5129258;27;956;-38
2021/06/17 07:02:26;;;;;;;;;;;;;;;20.79;60.10;100783.78;5116643;28;1018;-38
2021/06/17 07:04:51;;;;;;;;;;;;;;;21.26;59.54;100770.78;5116547;28;1972;-38
2021/06/17 07:07:17;;;;;;;;;;;;;;;21.24;59.32;100772.22;5116428;28;839;-38
2021/06/17 07:09:42;;;;;;;;;;;;;;;21.13;58.29;100772.41;5123645;28;1086;-39
2021/06/17 07:12:08;;;;;;;;;;;;;;;21.09;56.30;100776.09;5137379;28;790;-38
2021/06/17 07:14:33;;;;;;;;;;;;;;;20.96;54.19;100761.94;5132950;28;957;-38
2021/06/17 07:16:59;;;;;;;;;;;;;;;21.12;52.70;100764.44;5116726;28;751;-38
2021/06/17 07:19:24;;;;;;;;;;;;;;;21.05;52.56;100753.75;5116261;28;798;-38
2021/06/17 07:21:50;;;;;;;;;;;;;;;21.07;53.05;100762.59;5116346;28;780;-38
2021/06/17 07:24:15;;;;;;;;;;;;;;;20.97;55.55;100757.22;5116799;28;767;-39
2021/06/17 07:26:41;;;;;;;;;;;;;;;20.98;57.13;100761.63;5116698;28;1973;-39
2021/06/17 07:29:06;;;;;;;;;;;;;;;21.07;58.35;100761.75;5116430;28;763;-38
2021/06/17 07:31:32;;;;;;;;;;;;;;;21.30;58.45;100771.81;5115933;28;953;-38
2021/06/17 07:33:57;;;;;;;;;;;;;;;21.08;59.91;100764.22;5116436;28;752;-38
2021/06/17 07:36:23;;;;;;;;;;;;;;;20.94;60.95;100775.25;5116523;28;731;-38
2021/06/17 07:38:49;;;;;;;;;;;;;;;20.50;62.61;100774.56;5116294;28;751;-38
2021/06/17 07:41:14;;;;;;;;;;;;;;;20.81;62.27;100765.78;5116292;28;767;-38
2021/06/17 07:43:40;;;;;;;;;;;;;;;20.93;62.60;100772.78;5116201;28;835;-39
2021/06/17 07:46:05;;;;;;;;;;;;;;;21.00;61.53;100773.22;5115713;28;1910;-46
2021/06/17 07:48:31;;;;;;;;;;;;;;;21.27;58.82;100766.91;5116251;28;771;-39
2021/06/17 07:50:57;;;;;;;;;;;;;;;20.97;57.42;100768.28;5115898;28;786;-40
2021/06/17 07:53:22;;;;;;;;;;;;;;;20.88;55.01;100782.00;5119748;28;767;-38
2021/06/17 07:55:48;;;;;;;;;;;;;;;20.83;53.50;100768.25;5120037;28;799;-39
2021/06/17 07:58:13;;;;;;;;;;;;;;;21.00;54.44;100785.09;5120057;28;828;-57
2021/06/17 08:00:39;;;;;;;;;;;;;;;20.78;57.28;100782.97;5119274;28;973;-55
2021/06/17 08:03:04;;;;;;;;;;;;;;;20.74;58.95;100781.94;5120053;28;1192;-38
2021/06/17 08:05:30;;;;;;;;;;;;;;;20.86;59.94;100803.59;5120228;28;1902;-61
2021/06/17 08:07:55;;;;;;;;;;;;;;;20.62;62.45;100790.69;5119691;28;830;-38
2021/06/17 08:10:21;;;;;;;;;;;;;;;20.77;62.78;100806.19;5132116;27;1177;-38
2021/06/17 08:12:46;;;;;;;;;;;;;;;20.93;61.08;100783.84;5140582;27;842;-38
2021/06/17 08:15:12;;;;;;;;;;;;;;;20.82;59.11;100797.84;5130447;27;956;-38
2021/06/17 08:17:37;;;;;;;;;;;;;;;20.94;55.79;100796.53;5119827;28;768;-38
2021/06/17 08:20:08;;;;;;;;;;;;;;;20.90;54.00;100801.03;5119310;28;799;-61
2021/06/17 08:22:34;;;;;;;;;;;;;;;20.77;54.59;100808.97;5118996;28;818;-38
2021/06/17 08:24:59;;;;;;;;;;;;;;;20.77;56.44;100797.09;5119705;28;1910;-38
2021/06/17 08:27:28;;;;;;;;;;;;;;;21.12;56.59;100786.56;5119333;28;993;-38
2021/06/17 08:29:53;;;;;;;;;;;;;;;20.77;58.63;100808.97;5118432;28;1005;-38
2021/06/17 08:32:19;;;;;;;;;;;;;;;20.90;59.04;100789.97;5119114;28;727;-38
2021/06/17 08:34:44;;;;;;;;;;;;;;;20.80;60.00;100797.34;5119114;28;779;-39
2021/06/17 08:37:10;;;;;;;;;;;;;;;20.91;60.07;100795.19;5117558;28;911;-38
2021/06/17 08:39:36;;;;;;;;;;;;;;;20.47;61.18;100793.69;5119167;28;712;-38
2021/06/17 08:42:01;;;;;;;;;;;;;;;20.83;62.58;100805.00;5118858;28;779;-39
2021/06/17 08:44:29;;;;;;;;;;;;;;;21.06;62.04;100802.41;5118154;28;922;-56
2021/06/17 08:46:54;;;;;;;;;;;;;;;21.09;61.17;100810.09;5118916;28;1910;-40
2021/06/17 08:49:21;;;;;;;;;;;;;;;21.30;59.17;100798.66;5118775;28;787;-38
2021/06/17 08:51:47;;;;;;;;;;;;;;;21.23;58.05;100798.25;5100347;28;779;-58
2021/06/17 08:54:17;;;;;;;;;;;;;;;21.17;56.88;100798.34;5119226;28;798;-38
2021/06/17 08:56:49;;;;;;;;;;;;;;;21.33;55.58;100795.28;5118697;28;768;-40
2021/06/17 08:59:15;;;;;;;;;;;;;;;21.17;54.91;100798.34;5117254;28;945;-56
2021/06/17 09:01:40;;;;;;;;;;;;;;;20.97;55.22;100807.81;5118038;28;1133;-50
2021/06/17 09:04:19;;;;;;;;;;;;;;;21.06;54.51;100805.19;5117891;28;795;-38
2021/06/17 09:07:04;;;;;;;;;;;;;;;21.09;53.97;100809.28;5117193;28;1921;-50
2021/06/17 09:09:30;;;;;;;;;;;;;;;21.06;55.42;100804.38;5123468;27;1157;-58
2021/06/17 09:11:55;;;;;;;;;;;;;;;20.97;58.50;100796.78;5138767;27;778;-57
2021/06/17 09:14:21;;;;;;;;;;;;;;;21.13;59.73;100789.00;5137011;27;1003;-43
2021/06/17 09:16:46;;;;;;;;;;;;;;;;;;5118626;28;759;-40
2021/06/17 09:19:13;;;;;;;;;;;;;;;21.12;59.01;100776.31;5118369;28;787;-57
2021/06/17 09:21:38;;;;;;;;;;;;;;;21.10;57.14;100777.75;5116646;28;1407;-44
2021/06/17 09:24:04;;;;;;;;;;;;;;;21.02;54.51;100774.53;5118278;28;716;-40
2021/06/17 09:26:32;;;;;;;;;;;;;;;20.84;53.35;100772.66;5117224;28;1914;-42
2021/06/17 09:29:04;;;;;;;;;;;;;;;20.70;55.84;100780.09;5116669;28;755;-41
2021/06/17 09:31:30;;;;;;;;;;;;;;;20.76;58.74;100778.88;5117498;28;996;-40
2021/06/17 09:33:59;;;;;;;;;;;;;;;20.84;60.52;100775.44;5117939;28;747;-40
2021/06/17 09:36:25;;;;;;;;;;;;;;;20.76;62.08;100774.19;5117762;28;743;-41
2021/06/17 09:38:51;;;;;;;;;;;;;;;20.90;61.19;100773.38;5117968;28;815;-41
2021/06/17 09:41:39;;;;;;;;;;;;;;;20.64;59.71;100777.38;5118278;28;810;-41
2021/06/17 09:44:05;;;;;;;;;;;;;;;20.54;59.43;100773.94;5117584;28;735;-41
2021/06/17 09:46:30;;;;;;;;;;;;;;;20.66;58.76;100774.31;5117348;28;1970;-39
2021/06/17 09:49:02;;;;;;;;;;;;;;;20.74;58.72;100770.09;5118243;28;847;-42
2021/06/17 09:51:33;;;;;;;;;;;;;;;20.85;58.97;100777.88;5117715;28;771;-40
2021/06/17 09:54:05;;;;;;;;;;;;;;;20.74;59.84;100776.41;5117810;28;814;-41
2021/06/17 09:56:32;;;;;;;;;;;;;;;20.72;60.56;100786.97;5117457;28;739;-41
2021/06/17 09:58:57;;;;;;;;;;;;;;;20.85;61.13;100775.13;5117749;28;779;-41
2021/06/17 10:01:44;;;;;;;;;;;;;;;20.79;62.64;100790.16;5118556;28;1141;-40
2021/06/17 10:04:11;;;;;;;;;;;;;;;20.86;61.95;100787.00;5100293;28;1263;-41
2021/06/17 10:06:37;;;;;;;;;;;;;;;20.82;60.66;100780.44;5117393;28;1980;-40
2021/06/17 10:09:09;;;;;;;;;;;;;;;20.94;58.53;100779.94;5118348;27;1102;-39
2021/06/17 10:11:35;;;;;;;;;;;;;;;20.96;55.34;100763.91;5137684;27;763;-39
2021/06/17 10:14:01;;;;;;;;;;;;;;;20.74;54.13;100775.59;5137699;27;779;-39
2021/06/17 10:16:26;;;;;;;;;;;;;;;20.76;55.93;100776.94;5117914;27;941;-42
2021/06/17 10:18:52;;;;;;;;;;;;;;;20.81;59.13;100774.06;5116004;28;775;-39
2021/06/17 10:21:17;;;;;;;;;;;;;;;20.94;61.07;100766.94;5117176;28;771;-41
2021/06/17 10:23:44;;;;;;;;;;;;;;;20.96;61.94;100772.19;5117060;28;755;-40
2021/06/17 10:26:09;;;;;;;;;;;;;;;20.91;61.57;100770.31;5115444;28;1996;-42
2021/06/17 10:28:54;;;;;;;;;;;;;;;21.06;59.44;100772.00;5117381;28;798;-40
2021/06/17 10:31:35;;;;;;;;;;;;;;;20.96;57.69;100778.53;5116702;28;1126;-40
2021/06/17 10:34:19;;;;;;;;;;;;;;;20.77;54.81;100770.28;5116639;28;830;-40
2021/06/17 10:37:03;;;;;;;;;;;;;;;20.70;55.10;100780.91;5117345;28;763;-41
2021/06/17 10:39:48;;;;;;;;;;;;;;;20.70;57.46;100780.91;5117019;28;815;-41
2021/06/17 10:42:14;;;;;;;;;;;;;;;20.63;58.40;100781.25;5116498;28;760;-41
2021/06/17 10:44:46;;;;;;;;;;;;;;;20.63;60.67;100783.19;5116719;28;981;-42
2021/06/17 10:47:30;;;;;;;;;;;;;;;20.67;62.06;100773.19;5116950;28;1919;-39
2021/06/17 10:49:57;;;;;;;;;;;;;;;20.78;61.77;100766.41;5116371;28;859;-40
2021/06/17 10:52:26;;;;;;;;;;;;;;;20.89;60.23;100772.59;5116889;28;823;-39
2021/06/17 10:55:00;;;;;;;;;;;;;;;20.74;59.10;100770.09;5116786;28;739;-40
2021/06/17 10:57:45;;;;;;;;;;;;;;;20.81;57.01;100774.06;5116560;28;816;-41
2021/06/17 11:00:26;;;;;;;;;;;;;;;20.72;56.37;100777.84;5116411;28;989;-40
2021/06/17 11:03:01;;;;;;;;;;;;;;;20.82;57.74;100772.97;5116367;28;1220;-41
2021/06/17 11:05:35;;;;;;;;;;;;;;;20.84;60.38;100781.75;5116503;28;1897;-41
2021/06/17 11:08:13;;;;;;;;;;;;;;;20.96;61.27;100774.97;5116877;28;767;-42
2021/06/17 11:10:44;;;;;;;;;;;;;;;20.88;60.94;100776.47;5131047;28;1106;-41
2021/06/17 11:13:18;;;;;;;;;;;;;;;20.82;58.83;100780.44;5137155;28;803;-41
2021/06/17 11:15:44;;;;;;;;;;;;;;;20.78;57.17;100773.88;5122058;28;1333;-41
2021/06/17 11:18:10;;;;;;;;;;;;;;;20.88;56.25;100764.59;5116381;28;727;-41
2021/06/17 11:20:36;;;;;;;;;;;;;;;20.78;56.55;100766.41;5116882;28;758;-41
2021/06/17 11:23:02;;;;;;;;;;;;;;;20.76;56.71;100767.81;5116363;28;810;-41
2021/06/17 11:25:31;;;;;;;;;;;;;;;20.79;57.62;100767.22;5116330;28;1977;-41
2021/06/17 11:28:01;;;;;;;;;;;;;;;20.83;59.23;100777.38;5119527;28;876;-41
2021/06/17 11:30:38;;;;;;;;;;;;;;;20.93;61.39;100778.31;5119886;28;1070;-41
2021/06/17 11:35:58;;;;;;;;;;;;;;;21.03;60.42;100775.38;5120407;28;807;-41
2021/06/17 11:38:23;;;;;;;;;;;;;;;20.90;58.98;100785.28;5120191;28;751;-42
2021/06/17 11:40:49;;;;;;;;;;;;;;;20.97;56.80;100785.72;5120432;28;735;-41
2021/06/17 11:43:14;;;;;;;;;;;;;;;20.79;55.67;100784.63;5120362;28;808;-41
2021/06/17 11:45:42;;;;;;;;;;;;;;;20.39;54.61;100775.03;5119568;28;1977;-40
2021/06/17 11:48:08;;;;;;;;;;;;;;;20.64;56.97;100765.50;5118448;28;1085;-41
2021/06/17 11:50:43;;;;;;;;;;;;;;;20.83;59.42;100774.63;5119993;28;850;-41
2021/06/17 11:53:18;;;;;;;;;;;;;;;20.88;61.30;100764.59;5120313;28;755;-41
2021/06/17 11:55:45;;;;;;;;;;;;;;;20.95;61.28;100756.72;5119688;28;815;-40
2021/06/17 11:58:11;;;;;;;;;;;;;;;20.93;60.30;100762.56;5118173;28;815;-42
2021/06/17 12:00:36;;;;;;;;;;;;;;;20.80;58.48;100768.84;5119425;28;1013;-40
2021/06/17 12:03:02;;;;;;;;;;;;;;;20.52;56.00;100764.03;5119544;28;1039;-41
2021/06/17 12:05:27;;;;;;;;;;;;;;;20.51;54.37;100756.88;5116941;28;1914;-40
2021/06/17 12:07:54;;;;;;;;;;;;;;;20.57;56.28;100768.66;5118526;28;1362;-41
2021/06/17 12:10:31;;;;;;;;;;;;;;;20.78;59.34;100771.94;5131591;27;1106;-41
2021/06/17 12:12:56;;;;;;;;;;;;;;;20.88;60.26;100775.66;5140176;27;859;-41
2021/06/17 12:15:26;;;;;;;;;;;;;;;20.92;59.73;100774.72;5129514;27;1020;-41
2021/06/17 12:17:52;;;;;;;;;;;;;;;20.84;58.24;100765.19;5119523;28;823;-42
2021/06/17 12:20:18;;;;;;;;;;;;;;;20.73;56.83;100766.47;5119306;28;783;-41
2021/06/17 12:22:45;;;;;;;;;;;;;;;20.62;56.57;100762.22;5119516;28;759;-42
2021/06/17 12:25:10;;;;;;;;;;;;;;;20.67;56.96;100762.13;5118865;28;1978;-42
2021/06/17 12:27:42;;;;;;;;;;;;;;;20.64;57.30;100758.03;5119656;28;830;-41
2021/06/17 12:30:27;;;;;;;;;;;;;;;20.59;57.58;100763.63;5119071;28;961;-42
2021/06/17 12:32:53;;;;;;;;;;;;;;;20.77;57.35;100764.75;5118894;28;843;-41
2021/06/17 12:35:23;;;;;;;;;;;;;;;20.66;57.70;100768.78;5119353;28;851;-41
2021/06/17 12:37:59;;;;;;;;;;;;;;;20.64;58.95;100765.50;5118407;28;790;-41
2021/06/17 12:40:34;;;;;;;;;;;;;;;20.73;60.31;100771.19;5118466;28;771;-41
2021/06/17 12:43:09;;;;;;;;;;;;;;;20.88;61.43;100776.47;5119611;28;756;-41
2021/06/17 12:45:35;;;;;;;;;;;;;;;20.73;61.58;100777.53;5118700;28;1921;-40
2021/06/17 12:48:08;;;;;;;;;;;;;;;20.62;64.40;100781.56;5118551;28;814;-41
2021/06/17 12:53:20;;;;;;;;;;;;;;;20.77;61.49;100786.84;5118809;28;820;-40
2021/06/17 12:55:47;;;;;;;;;;;;;;;20.85;59.00;100782.59;5118354;28;819;-41
2021/06/17 12:58:15;;;;;;;;;;;;;;;20.62;57.43;100789.84;5117548;28;787;-40
2021/06/17 13:00:53;;;;;;;;;;;;;;;20.86;54.46;100798.06;5117138;28;973;-41
2021/06/17 13:03:22;;;;;;;;;;;;;;;20.78;56.27;100809.81;5118654;28;1185;-41
2021/06/17 13:05:47;;;;;;;;;;;;;;;20.77;58.02;100825.53;5118723;28;1979;-40